KCEF/CEF METAR and TAF weather

Enter ICAO airport designator
Station Type Date Time Source
KCEF METAR 2022/06/25 21:56 UTC NOAA

KCEF 252156Z 00000KT 10SM FEW070 FEW250 32/11 A3006 RMK AO2A SLP184 T03170109


Station Type Date Time Source
KCEF Decoded METAR 2022/06/25 21:56 UTC NOAA

Chicopee Falls / Westover Air Force Base, MA, United States (KCEF) 42-12N 072-32W 75M
Jun 25, 2022 - 05:56 PM EDT / 2022.06.25 2156 UTC
Wind: Calm:0
Visibility: 10 mile(s):0
Sky conditions: mostly clear
Temperature: 89.1 F (31.7 C)
Dew Point: 51.6 F (10.9 C)
Relative Humidity: 27%
Pressure (altimeter): 30.06 in. Hg (1017 hPa)
ob: KCEF 252156Z 00000KT 10SM FEW070 FEW250 32/11 A3006 RMK AO2A SLP184 T03170109
cycle: 22

Station Type Date Time Source
KCEF TAF 2022/06/25 18:21 UTC NOAA

TAF KCEF 251800Z 2518/2624 VRB06KT 9999 FEW070 FEW250 QNH2999INS WND 20012KT AFT 2617
BECMG 2619/2620 21010G20KT 9999 BKN080 BKN200 QNH2997INS TX33/2521Z TN16/2609Z

Example: see airport list